Time;durP1;ratioP1;P1;durP2;ratioP2;P2;SDS_P1;SDS_P2;PMS_P1;PMS_P2;Temp;Humidity;BMP_temperature;BMP_pressure;BME280_temperature;BME280_humidity;BME280_pressure;Samples;Min_cycle;Max_cycle;Signal;HPM_P1;HPM_P2
2022/02/22 00:00:15;;;;;;;1.98;0.45;;;9.70;66.30;;;;;;6177918;28;20054;-72
2022/02/22 00:03:16;;;;;;;4.28;0.90;;;9.70;66.40;;;;;;6207030;28;20120;-73
2022/02/22 00:06:17;;;;;;;2.17;0.70;;;9.70;66.40;;;;;;6215119;28;20460;-72
2022/02/22 00:09:18;;;;;;;2.13;0.63;;;9.70;66.30;;;;;;6204470;28;20049;-71
2022/02/22 00:12:18;;;;;;;1.27;0.90;;;9.70;66.30;;;;;;6200776;28;20042;-72
2022/02/22 00:15:19;;;;;;;0.98;0.60;;;9.70;66.40;;;;;;6203790;28;20459;-72
2022/02/22 00:18:21;;;;;;;3.30;1.00;;;9.80;66.40;;;;;;6201413;28;20368;-72
2022/02/22 00:21:22;;;;;;;1.45;0.90;;;9.80;66.40;;;;;;6190413;28;20035;-73
2022/02/22 00:24:24;;;;;;;3.13;0.82;;;9.80;66.40;;;;;;6183580;28;20080;-73
2022/02/22 00:27:25;;;;;;;5.75;0.60;;;9.80;66.20;;;;;;6196139;28;20045;-74
2022/02/22 00:30:26;;;;;;;2.92;0.88;;;9.80;66.20;;;;;;6213337;28;20038;-73
2022/02/22 00:33:28;;;;;;;1.60;0.93;;;9.80;66.40;;;;;;6215711;28;20035;-73
2022/02/22 00:36:30;;;;;;;1.45;0.88;;;9.80;66.40;;;;;;6217463;28;20134;-72
2022/02/22 00:39:31;;;;;;;1.10;0.70;;;9.80;66.60;;;;;;6216788;28;20110;-72
2022/02/22 00:42:32;;;;;;;2.28;0.73;;;9.80;66.60;;;;;;6201331;28;20479;-72
2022/02/22 00:45:33;;;;;;;1.70;0.65;;;9.80;66.70;;;;;;6200674;28;20034;-72
2022/02/22 00:48:34;;;;;;;4.25;1.20;;;9.70;66.70;;;;;;6200603;28;20125;-72
2022/02/22 00:51:36;;;;;;;1.25;0.90;;;9.80;66.90;;;;;;6200445;28;20046;-72
2022/02/22 00:54:37;;;;;;;1.88;0.70;;;9.70;67.00;;;;;;6200581;28;20066;-73
2022/02/22 00:57:41;;;;;;;2.13;1.00;;;9.70;67.30;;;;;;6182826;28;20042;-72
2022/02/22 01:00:42;;;;;;;3.13;1.40;;;9.70;67.40;;;;;;6196761;28;20121;-72
2022/02/22 01:03:45;;;;;;;1.20;0.82;;;9.60;67.50;;;;;;6202256;28;20081;-72
2022/02/22 01:06:45;;;;;;;2.53;1.08;;;9.60;67.60;;;;;;6197786;28;20026;-72
2022/02/22 01:09:47;;;;;;;3.30;0.88;;;9.60;67.70;;;;;;6199180;28;20038;-72
2022/02/22 01:12:48;;;;;;;8.15;1.15;;;9.60;67.80;;;;;;6200486;28;20049;-72
2022/02/22 01:15:49;;;;;;;5.15;1.15;;;9.50;67.90;;;;;;6198100;28;20468;-73
2022/02/22 01:18:49;;;;;;;2.15;0.60;;;9.50;68.10;;;;;;6199047;28;20043;-72
2022/02/22 01:21:50;;;;;;;5.22;0.85;;;9.50;68.20;;;;;;6203488;28;20627;-73
2022/02/22 01:24:51;;;;;;;0.82;0.45;;;9.50;68.30;;;;;;6200550;28;20034;-73
2022/02/22 01:27:53;;;;;;;4.60;0.98;;;9.50;68.30;;;;;;6214816;28;20034;-73
2022/02/22 01:30:54;;;;;;;2.10;0.93;;;9.50;68.50;;;;;;6199896;28;20451;-73
2022/02/22 01:33:55;;;;;;;0.93;0.40;;;9.50;68.50;;;;;;6180807;28;20037;-73
2022/02/22 01:36:56;;;;;;;1.45;0.40;;;9.50;69.50;;;;;;6197033;28;20078;-73
2022/02/22 01:39:57;;;;;;;4.22;0.93;;;9.50;68.60;;;;;;6199074;28;20036;-73
2022/02/22 01:42:59;;;;;;;1.65;0.55;;;9.50;68.50;;;;;;6180249;28;20039;-73
2022/02/22 01:46:00;;;;;;;2.83;0.60;;;9.50;68.60;;;;;;6181581;28;20042;-74
2022/02/22 01:49:01;;;;;;;4.78;0.60;;;9.60;68.80;;;;;;6198674;28;20121;-73
2022/02/22 01:52:04;;;;;;;4.00;1.10;;;9.60;68.80;;;;;;6199240;28;20034;-75
2022/02/22 01:55:05;;;;;;;1.50;0.65;;;9.70;68.80;;;;;;6214644;28;20138;-74
2022/02/22 01:58:07;;;;;;;1.27;0.65;;;9.60;68.70;;;;;;6176555;28;20049;-72
2022/02/22 02:01:09;;;;;;;1.75;0.50;;;9.70;68.70;;;;;;6198012;28;20035;-73
2022/02/22 02:04:11;;;;;;;1.85;0.60;;;9.70;68.80;;;;;;6212233;28;20491;-74
2022/02/22 02:07:11;;;;;;;3.63;0.50;;;9.70;68.70;;;;;;6199290;28;20030;-73
2022/02/22 02:10:12;;;;;;;1.92;0.70;;;9.70;68.70;;;;;;6199184;28;20360;-73
2022/02/22 02:13:13;;;;;;;2.28;0.60;;;9.70;68.70;;;;;;6198867;28;20048;-73
2022/02/22 02:16:14;;;;;;;6.68;0.88;;;9.80;68.70;;;;;;6198132;28;20392;-73
2022/02/22 02:19:16;;;;;;;4.57;0.82;;;9.80;68.60;;;;;;6191269;28;20492;-73
2022/02/22 02:22:17;;;;;;;2.53;0.50;;;9.80;68.60;;;;;;6198551;28;20053;-73
2022/02/22 02:25:18;;;;;;;1.10;0.50;;;9.80;68.60;;;;;;6195345;28;20059;-74
2022/02/22 02:28:19;;;;;;;1.17;0.70;;;9.80;68.60;;;;;;6213539;28;20034;-73
2022/02/22 02:31:20;;;;;;;1.58;0.55;;;9.90;68.70;;;;;;6171991;28;20034;-73
2022/02/22 02:34:23;;;;;;;0.85;0.60;;;9.80;68.60;;;;;;6197643;28;20050;-73
2022/02/22 02:37:24;;;;;;;3.05;1.30;;;9.80;68.70;;;;;;6214677;28;20470;-73
2022/02/22 02:40:25;;;;;;;1.55;0.60;;;9.80;68.70;;;;;;6198534;28;20034;-73
2022/02/22 02:43:26;;;;;;;0.95;0.60;;;9.80;68.70;;;;;;6196747;28;20043;-72
2022/02/22 02:46:27;;;;;;;2.95;0.75;;;9.80;68.80;;;;;;6214277;28;20031;-73
2022/02/22 02:49:28;;;;;;;1.90;0.65;;;9.80;68.90;;;;;;6202082;28;20541;-73
2022/02/22 02:52:29;;;;;;;2.55;0.50;;;9.80;69.10;;;;;;6186252;28;20034;-72
2022/02/22 02:55:30;;;;;;;0.98;0.45;;;9.80;69.00;;;;;;6190388;28;20468;-74
2022/02/22 02:58:31;;;;;;;1.25;0.40;;;9.70;69.00;;;;;;6202970;28;20332;-72
2022/02/22 03:01:34;;;;;;;3.53;0.50;;;9.70;69.10;;;;;;6202510;28;20450;-72
2022/02/22 03:04:35;;;;;;;1.38;0.50;;;9.70;69.10;;;;;;6186875;28;20035;-72
2022/02/22 03:07:36;;;;;;;1.55;0.63;;;9.70;69.00;;;;;;6209739;28;20045;-72
2022/02/22 03:10:37;;;;;;;1.73;0.77;;;9.70;68.90;;;;;;6195780;28;20444;-72
2022/02/22 03:13:39;;;;;;;3.75;0.82;;;9.70;69.10;;;;;;6195271;28;20054;-73
2022/02/22 03:16:40;;;;;;;3.10;0.90;;;9.70;68.90;;;;;;6214293;28;20035;-73
2022/02/22 03:19:40;;;;;;;1.55;0.63;;;9.60;68.90;;;;;;6189430;28;20502;-73
2022/02/22 03:22:45;;;;;;;0.80;0.50;;;9.70;68.90;;;;;;6212908;28;20038;-73
2022/02/22 03:25:48;;;;;;;0.95;0.50;;;9.60;68.90;;;;;;6196563;28;20039;-72
2022/02/22 03:28:48;;;;;;;3.40;0.50;;;9.70;69.00;;;;;;6192648;28;20042;-72
2022/02/22 03:31:49;;;;;;;1.20;0.60;;;9.70;69.00;;;;;;6192772;28;20343;-73
2022/02/22 03:34:50;;;;;;;1.38;0.60;;;9.70;68.80;;;;;;6201671;28;20045;-72
2022/02/22 03:37:51;;;;;;;0.95;0.40;;;9.80;68.80;;;;;;6202324;28;20034;-73
2022/02/22 03:40:52;;;;;;;1.15;1.05;;;9.70;68.90;;;;;;6201207;28;20046;-72
2022/02/22 03:43:53;;;;;;;3.20;0.80;;;9.70;68.90;;;;;;6204506;28;20022;-73
2022/02/22 03:46:54;;;;;;;2.53;0.30;;;9.70;68.90;;;;;;6184996;28;20037;-73
2022/02/22 03:49:55;;;;;;;0.30;0.30;;;9.70;68.90;;;;;;6202021;28;20034;-73
2022/02/22 03:52:56;;;;;;;1.50;0.50;;;9.70;68.80;;;;;;6200396;28;20027;-72
2022/02/22 03:55:57;;;;;;;2.38;0.57;;;9.70;68.80;;;;;;6215885;28;20034;-72
2022/02/22 03:58:58;;;;;;;1.42;0.50;;;9.70;68.90;;;;;;6215371;28;20054;-72
2022/02/22 04:01:59;;;;;;;2.10;0.43;;;9.70;68.80;;;;;;6199495;28;20039;-72
2022/02/22 04:05:01;;;;;;;0.50;0.40;;;9.60;68.70;;;;;;6200192;28;20395;-72
2022/02/22 04:08:02;;;;;;;0.47;0.38;;;9.60;68.90;;;;;;6200347;28;20475;-72
2022/02/22 04:11:03;;;;;;;1.98;0.60;;;9.60;68.90;;;;;;6200962;28;20094;-72
2022/02/22 04:14:04;;;;;;;2.35;0.60;;;9.60;69.00;;;;;;6201656;28;20042;-72
2022/02/22 04:17:05;;;;;;;3.83;0.80;;;9.50;69.10;;;;;;6215056;28;20048;-72
2022/02/22 04:20:08;;;;;;;3.97;0.65;;;9.50;70.00;;;;;;6203663;28;20073;-72
2022/02/22 04:23:09;;;;;;;2.15;0.77;;;9.50;69.30;;;;;;6216442;28;20037;-72
2022/02/22 04:26:09;;;;;;;1.38;0.77;;;9.50;69.50;;;;;;6199486;28;20117;-72
2022/02/22 04:29:10;;;;;;;1.55;0.60;;;9.60;69.70;;;;;;6201388;28;20034;-72
2022/02/22 04:32:11;;;;;;;2.92;1.00;;;9.60;69.40;;;;;;6199895;28;20374;-72
2022/02/22 04:35:12;;;;;;;0.60;0.57;;;9.60;69.30;;;;;;6199913;28;20042;-73
2022/02/22 04:38:13;;;;;;;1.67;0.70;;;9.60;69.30;;;;;;6200054;28;20043;-73
2022/02/22 04:41:14;;;;;;;2.50;1.23;;;9.60;69.40;;;;;;6187474;28;20038;-72
2022/02/22 04:44:15;;;;;;;5.30;0.70;;;9.60;69.40;;;;;;6174947;28;20050;-72
2022/02/22 04:47:16;;;;;;;2.33;1.20;;;9.60;69.60;;;;;;6184400;28;20043;-72
2022/02/22 04:50:19;;;;;;;1.67;0.95;;;9.60;69.80;;;;;;6186200;28;20340;-72
2022/02/22 04:53:19;;;;;;;2.15;0.80;;;9.50;69.90;;;;;;6190597;28;20039;-73
2022/02/22 04:56:20;;;;;;;1.75;0.90;;;9.50;69.90;;;;;;6199471;28;20057;-72
2022/02/22 04:59:22;;;;;;;2.05;0.50;;;9.50;70.40;;;;;;6182636;28;20117;-72
2022/02/22 05:02:23;;;;;;;3.20;0.95;;;9.50;70.60;;;;;;6214530;28;20121;-72
2022/02/22 05:05:24;;;;;;;1.27;0.55;;;9.40;70.70;;;;;;6202738;28;20041;-72
2022/02/22 05:08:25;;;;;;;2.80;1.20;;;9.40;70.90;;;;;;6200451;28;20034;-72
2022/02/22 05:11:25;;;;;;;2.38;0.90;;;9.40;71.00;;;;;;6190892;28;20383;-72
2022/02/22 05:14:26;;;;;;;1.83;0.70;;;9.50;71.20;;;;;;6198833;28;20034;-72
2022/02/22 05:17:27;;;;;;;5.30;1.25;;;9.50;71.00;;;;;;6199414;28;20038;-72
2022/02/22 05:20:28;;;;;;;1.42;0.93;;;9.60;71.10;;;;;;6201451;28;20498;-71
2022/02/22 05:23:33;;;;;;;2.80;0.70;;;9.60;70.90;;;;;;6199960;28;20125;-72
2022/02/22 05:26:34;;;;;;;0.88;0.40;;;9.60;70.80;;;;;;6193714;28;20034;-72
2022/02/22 05:29:35;;;;;;;2.45;0.70;;;9.50;70.80;;;;;;6199201;28;20050;-73
2022/02/22 05:32:35;;;;;;;1.02;0.47;;;9.50;70.70;;;;;;6197905;28;20125;-74
2022/02/22 05:35:36;;;;;;;2.03;0.57;;;9.40;70.70;;;;;;6199870;28;20038;-72
2022/02/22 05:38:39;;;;;;;3.65;0.43;;;9.40;70.90;;;;;;6200519;28;20966;-72
2022/02/22 05:41:40;;;;;;;1.42;0.43;;;9.40;70.90;;;;;;6196996;28;20037;-72
2022/02/22 05:44:41;;;;;;;1.45;0.32;;;9.40;71.20;;;;;;6201183;28;20337;-72
2022/02/22 05:47:42;;;;;;;0.55;0.20;;;9.40;71.00;;;;;;6200303;28;20039;-72
2022/02/22 05:50:43;;;;;;;1.85;0.38;;;9.40;71.00;;;;;;6199834;28;20113;-73
2022/02/22 05:53:44;;;;;;;0.32;0.30;;;9.40;70.80;;;;;;6199220;28;20040;-72
2022/02/22 05:56:45;;;;;;;1.65;0.40;;;9.50;70.70;;;;;;6192258;28;20166;-72
2022/02/22 05:59:46;;;;;;;0.43;0.10;;;9.40;70.30;;;;;;6198552;28;20059;-73
2022/02/22 06:02:48;;;;;;;0.10;0.10;;;9.40;70.00;;;;;;6182480;28;20126;-72
2022/02/22 06:05:49;;;;;;;1.00;0.40;;;9.40;70.00;;;;;;6190345;28;20384;-73
2022/02/22 06:08:50;;;;;;;0.85;0.20;;;9.40;69.90;;;;;;6198165;28;20058;-71
2022/02/22 06:11:50;;;;;;;1.35;0.50;;;9.40;69.90;;;;;;6190418;28;20046;-73
2022/02/22 06:14:51;;;;;;;1.42;0.47;;;9.50;69.90;;;;;;6191183;28;20097;-73
2022/02/22 06:17:52;;;;;;;0.90;0.57;;;9.40;69.60;;;;;;6175442;28;20041;-73
2022/02/22 06:20:53;;;;;;;0.65;0.50;;;9.40;69.40;;;;;;6191588;28;20490;-73
2022/02/22 06:23:54;;;;;;;2.10;0.55;;;9.50;69.50;;;;;;6196772;28;20041;-74
2022/02/22 06:26:55;;;;;;;1.75;0.55;;;9.50;69.20;;;;;;6165018;28;20126;-73
2022/02/22 06:29:56;;;;;;;5.07;0.90;;;9.50;69.10;;;;;;6185521;28;20366;-73
2022/02/22 06:32:57;;;;;;;1.77;1.08;;;9.50;69.00;;;;;;6196722;28;20030;-74
2022/02/22 06:35:58;;;;;;;1.48;0.80;;;9.60;69.00;;;;;;6211951;28;20042;-73
2022/02/22 06:38:59;;;;;;;5.28;1.30;;;9.50;69.00;;;;;;6163087;28;20039;-74
2022/02/22 06:42:00;;;;;;;3.50;1.50;;;9.50;69.10;;;;;;6194578;28;20553;-73
2022/02/22 06:45:03;;;;;;;2.25;1.55;;;9.50;69.00;;;;;;6194513;28;20142;-75
2022/02/22 06:48:05;;;;;;;5.15;2.50;;;9.40;69.00;;;;;;6194343;28;20459;-72
2022/02/22 06:51:07;;;;;;;3.35;1.35;;;9.40;69.10;;;;;;6182962;28;20479;-73
2022/02/22 06:54:08;;;;;;;6.95;1.73;;;9.40;69.10;;;;;;6194761;28;20038;-73
2022/02/22 06:57:09;;;;;;;7.93;2.20;;;9.30;69.10;;;;;;6203544;28;20042;-72
2022/02/22 07:00:13;;;;;;;3.03;2.08;;;9.20;69.10;;;;;;6202988;28;20121;-72
2022/02/22 07:03:14;;;;;;;2.35;1.58;;;9.20;69.30;;;;;;6202423;28;20444;-73
2022/02/22 07:06:15;;;;;;;4.60;1.45;;;9.20;69.30;;;;;;6216976;28;20065;-72
2022/02/22 07:09:16;;;;;;;8.23;1.35;;;9.10;69.60;;;;;;6202631;28;20427;-73
2022/02/22 07:12:17;;;;;;;2.78;1.48;;;9.10;70.70;;;;;;6191610;28;20057;-74
2022/02/22 07:15:18;;;;;;;2.65;1.58;;;9.10;69.90;;;;;;6201967;28;20371;-72
2022/02/22 07:18:19;;;;;;;2.47;1.65;;;9.10;69.90;;;;;;6217189;28;20035;-72
2022/02/22 07:21:20;;;;;;;3.70;1.58;;;9.20;69.90;;;;;;6197752;28;20482;-73
2022/02/22 07:24:21;;;;;;;3.17;1.60;;;9.20;69.80;;;;;;6206096;28;20027;-72
2022/02/22 07:27:22;;;;;;;9.40;2.28;;;9.20;69.60;;;;;;6217868;28;20065;-72
2022/02/22 07:30:23;;;;;;;13.18;1.70;;;9.20;69.50;;;;;;6209571;28;20128;-72
2022/02/22 07:33:24;;;;;;;6.22;2.00;;;9.30;69.60;;;;;;6166427;28;20404;-73
2022/02/22 07:36:25;;;;;;;4.43;1.65;;;9.30;69.60;;;;;;6193918;28;20046;-72
2022/02/22 07:39:26;;;;;;;6.93;1.23;;;9.30;69.40;;;;;;6167070;28;20039;-72
2022/02/22 07:42:27;;;;;;;3.25;1.67;;;9.40;69.40;;;;;;6195533;28;20369;-73
2022/02/22 07:45:28;;;;;;;9.95;1.90;;;9.50;69.30;;;;;;6188048;28;20035;-71
2022/02/22 07:48:29;;;;;;;2.95;1.30;;;9.50;69.20;;;;;;6191831;28;20081;-73
2022/02/22 07:51:30;;;;;;;2.65;1.60;;;9.60;69.10;;;;;;6197415;28;20030;-72
2022/02/22 07:54:31;;;;;;;5.90;1.65;;;9.60;68.90;;;;;;6201909;28;20038;-73
2022/02/22 07:57:32;;;;;;;2.90;1.58;;;9.60;68.80;;;;;;6200548;28;20130;-73
2022/02/22 08:00:34;;;;;;;4.40;1.70;;;9.60;68.80;;;;;;6200317;28;20038;-72
2022/02/22 08:03:36;;;;;;;7.22;2.05;;;9.70;68.90;;;;;;6200298;28;20050;-72
2022/02/22 08:06:37;;;;;;;3.05;1.58;;;9.70;68.70;;;;;;6214199;28;20490;-73
2022/02/22 08:09:37;;;;;;;3.97;1.90;;;9.80;68.50;;;;;;6201329;28;20049;-72
2022/02/22 08:12:38;;;;;;;7.15;1.65;;;9.80;68.60;;;;;;6198888;28;20097;-72
2022/02/22 08:15:40;;;;;;;7.40;1.77;;;9.80;68.50;;;;;;6195184;28;20100;-72
2022/02/22 08:18:40;;;;;;;5.28;1.98;;;9.90;68.60;;;;;;6200442;28;20463;-72
2022/02/22 08:21:41;;;;;;;7.05;1.75;;;10.20;68.60;;;;;;6216406;28;20038;-72
2022/02/22 08:24:42;;;;;;;2.17;1.27;;;10.10;68.40;;;;;;6199032;28;20089;-72
2022/02/22 08:27:43;;;;;;;4.20;2.05;;;10.30;69.00;;;;;;6200831;28;20034;-73
2022/02/22 08:30:44;;;;;;;11.38;2.38;;;10.50;67.90;;;;;;6216019;28;20038;-72
2022/02/22 08:33:45;;;;;;;8.10;2.10;;;10.60;67.70;;;;;;6193520;28;20101;-73
2022/02/22 08:36:47;;;;;;;3.88;1.55;;;10.70;67.50;;;;;;6200386;28;20095;-72
2022/02/22 08:39:48;;;;;;;2.60;1.80;;;10.90;66.90;;;;;;6188310;28;20439;-73
2022/02/22 08:42:49;;;;;;;2.80;1.27;;;11.10;66.30;;;;;;6200254;28;20165;-73
2022/02/22 08:45:50;;;;;;;4.72;1.77;;;11.20;66.20;;;;;;6199858;28;20030;-73
2022/02/22 08:48:51;;;;;;;5.53;1.20;;;11.40;65.80;;;;;;6198647;28;20056;-73
2022/02/22 08:51:52;;;;;;;3.67;1.75;;;11.60;65.40;;;;;;6199346;28;20180;-72
2022/02/22 08:54:53;;;;;;;6.85;1.80;;;11.80;65.10;;;;;;6198263;28;20092;-72
2022/02/22 08:57:56;;;;;;;5.38;1.40;;;12.00;64.70;;;;;;6199493;28;20058;-73
2022/02/22 09:00:58;;;;;;;2.53;1.10;;;12.10;64.10;;;;;;6200261;28;20403;-72
2022/02/22 09:03:59;;;;;;;3.85;1.40;;;12.20;63.90;;;;;;6200815;28;20113;-74
2022/02/22 09:06:59;;;;;;;3.97;1.40;;;12.20;63.60;;;;;;6200056;28;20036;-72
2022/02/22 09:10:00;;;;;;;2.70;1.17;;;12.30;63.50;;;;;;6175055;28;20042;-73
2022/02/22 09:13:02;;;;;;;6.20;1.70;;;12.30;63.30;;;;;;6204871;28;20042;-73
2022/02/22 09:16:03;;;;;;;5.70;1.40;;;12.30;62.60;;;;;;6170296;28;20479;-73
2022/02/22 09:19:05;;;;;;;2.28;1.25;;;12.40;62.30;;;;;;6207465;28;20066;-73
2022/02/22 09:22:08;;;;;;;5.72;1.38;;;12.40;62.40;;;;;;6193535;28;20137;-74
2022/02/22 09:25:10;;;;;;;5.68;2.10;;;12.50;61.90;;;;;;6189562;28;20038;-74
2022/02/22 09:28:11;;;;;;;5.97;1.98;;;12.70;61.80;;;;;;6196973;28;20117;-73
2022/02/22 09:31:12;;;;;;;15.57;1.40;;;12.90;61.70;;;;;;6197945;28;20111;-73
2022/02/22 09:34:13;;;;;;;5.70;1.02;;;13.10;61.20;;;;;;6196950;28;20070;-72
2022/02/22 09:37:14;;;;;;;3.58;1.30;;;13.20;60.30;;;;;;6196941;28;20113;-72
2022/02/22 09:40:15;;;;;;;1.67;0.93;;;13.20;59.80;;;;;;6199359;28;20038;-72
2022/02/22 09:43:17;;;;;;;5.90;1.08;;;13.10;59.90;;;;;;6197634;28;20459;-73
2022/02/22 09:46:18;;;;;;;3.03;1.13;;;13.10;60.00;;;;;;6198927;28;20057;-72
2022/02/22 09:49:19;;;;;;;1.90;0.70;;;13.10;60.10;;;;;;6197578;28;20038;-72
2022/02/22 09:52:20;;;;;;;3.05;1.00;;;13.20;59.70;;;;;;6214680;28;20049;-72
2022/02/22 09:55:21;;;;;;;6.43;1.10;;;13.30;59.40;;;;;;6214187;28;20066;-71
2022/02/22 09:58:22;;;;;;;6.25;1.15;;;13.40;58.90;;;;;;6195184;28;20079;-73
2022/02/22 10:01:24;;;;;;;6.18;0.90;;;13.40;58.40;;;;;;6198795;28;20035;-73
2022/02/22 10:04:26;;;;;;;3.78;1.17;;;13.40;58.40;;;;;;6190790;28;20529;-73
2022/02/22 10:07:31;;;;;;;5.45;1.35;;;13.40;58.10;;;;;;6198341;28;20037;-73
2022/02/22 10:10:41;;;;;;;3.13;1.00;;;13.40;58.40;;;;;;6181520;28;20048;-73
2022/02/22 10:13:46;;;;;;;7.53;1.33;;;13.50;58.10;;;;;;6196857;28;20172;-73
2022/02/22 10:16:48;;;;;;;8.43;1.17;;;13.50;57.80;;;;;;6198294;28;20053;-73
2022/02/22 10:20:02;;;;;;;4.32;1.40;;;13.50;57.90;;;;;;6191864;28;20034;-73
2022/02/22 10:23:06;;;;;;;3.10;1.10;;;13.50;57.80;;;;;;6193279;28;20034;-74
2022/02/22 10:26:07;;;;;;;4.13;1.10;;;13.60;58.10;;;;;;6212606;28;20030;-73
2022/02/22 10:29:24;;;;;;;4.18;1.00;;;13.70;57.80;;;;;;6195761;28;20034;-73
2022/02/22 10:32:25;;;;;;;6.95;1.38;;;13.70;57.30;;;;;;6191980;28;20066;-72
2022/02/22 10:35:31;;;;;;;4.32;1.00;;;13.70;56.50;;;;;;6191709;28;20053;-73
2022/02/22 10:38:34;;;;;;;7.90;1.30;;;13.70;56.60;;;;;;6195594;28;20030;-72
2022/02/22 10:41:41;;;;;;;9.00;2.25;;;13.80;56.80;;;;;;6210055;28;20050;-72
2022/02/22 10:44:42;;;;;;;11.60;1.52;;;13.80;56.60;;;;;;6195602;28;20050;-73
2022/02/22 10:47:42;;;;;;;8.25;1.40;;;13.80;56.60;;;;;;6191720;28;20034;-74
2022/02/22 10:50:52;;;;;;;4.50;1.75;;;13.90;56.00;;;;;;6213493;28;20347;-73
2022/02/22 10:53:57;;;;;;;5.15;1.00;;;13.90;55.80;;;;;;6211844;28;20041;-73
2022/02/22 10:56:58;;;;;;;3.80;1.15;;;13.90;55.70;;;;;;6190691;28;20424;-73
2022/02/22 11:00:00;;;;;;;14.65;4.18;;;13.90;55.40;;;;;;6181244;28;20039;-73
2022/02/22 11:03:03;;;;;;;15.57;2.60;;;13.90;55.40;;;;;;6210800;28;20130;-73
2022/02/22 11:06:04;;;;;;;5.22;1.48;;;14.00;55.60;;;;;;6212652;28;20030;-73
2022/02/22 11:09:07;;;;;;;7.07;1.40;;;14.00;55.20;;;;;;6183619;28;20073;-73
2022/02/22 11:12:21;;;;;;;6.35;1.20;;;13.90;55.10;;;;;;6193371;28;20122;-73
2022/02/22 11:15:34;;;;;;;6.90;1.35;;;13.90;54.70;;;;;;6185769;28;20459;-73
2022/02/22 11:18:55;;;;;;;5.22;1.77;;;13.90;54.50;;;;;;6172821;28;20534;-74
2022/02/22 11:22:17;;;;;;;9.25;1.73;;;13.90;54.50;;;;;;6187014;28;20039;-73
2022/02/22 11:25:30;;;;;;;9.00;1.08;;;14.00;53.90;;;;;;6210918;28;20073;-74
2022/02/22 11:28:41;;;;;;;6.45;1.33;;;13.90;52.90;;;;;;6193285;28;20085;-73
2022/02/22 11:31:44;;;;;;;3.95;1.17;;;14.00;53.20;;;;;;6193317;28;20359;-73
2022/02/22 11:34:45;;;;;;;8.25;1.75;;;14.00;53.30;;;;;;6207164;28;20043;-73
2022/02/22 11:37:46;;;;;;;4.30;1.42;;;14.20;53.60;;;;;;6197176;28;20034;-74
2022/02/22 11:40:53;;;;;;;4.03;1.20;;;14.50;53.20;;;;;;6213293;28;20345;-73
2022/02/22 11:43:59;;;;;;;6.90;1.42;;;14.60;53.40;;;;;;6193839;28;20048;-73
2022/02/22 11:47:01;;;;;;;7.78;1.52;;;14.70;52.00;;;;;;6192951;28;20058;-73
2022/02/22 11:50:16;;;;;;;4.72;1.13;;;14.80;51.50;;;;;;6211682;28;20045;-73
2022/02/22 11:53:23;;;;;;;16.67;2.08;;;14.80;51.70;;;;;;6189306;28;20058;-74
2022/02/22 11:56:25;;;;;;;11.25;1.55;;;14.70;51.10;;;;;;6196400;28;20035;-73
2022/02/22 11:59:30;;;;;;;7.75;1.75;;;14.80;51.30;;;;;;6197742;28;20374;-73
2022/02/22 12:02:34;;;;;;;5.85;1.40;;;14.80;50.80;;;;;;6197247;28;20030;-72
2022/02/22 12:05:39;;;;;;;3.20;1.20;;;14.80;49.80;;;;;;6213455;28;20097;-72
2022/02/22 12:08:42;;;;;;;6.28;1.80;;;14.80;49.70;;;;;;6197258;28;20033;-72
2022/02/22 12:11:43;;;;;;;4.72;1.10;;;14.90;49.60;;;;;;6213973;28;20039;-74
2022/02/22 12:14:55;;;;;;;5.45;1.15;;;14.90;49.80;;;;;;6196132;28;20491;-74
2022/02/22 12:17:56;;;;;;;4.55;1.33;;;15.00;50.40;;;;;;6208212;28;20125;-73
2022/02/22 12:20:58;;;;;;;7.10;1.40;;;15.00;50.50;;;;;;6184532;28;20399;-74
2022/02/22 12:24:00;;;;;;;6.20;1.35;;;15.10;50.10;;;;;;6192271;28;20045;-72
2022/02/22 12:27:13;;;;;;;12.65;1.65;;;15.20;50.00;;;;;;6197514;28;20119;-73
2022/02/22 12:30:14;;;;;;;6.90;1.70;;;15.20;49.50;;;;;;6210884;28;20096;-73
2022/02/22 12:33:17;;;;;;;6.35;1.45;;;15.20;49.30;;;;;;6209834;28;20460;-73
2022/02/22 12:36:19;;;;;;;5.47;1.40;;;15.20;49.00;;;;;;6212560;28;20479;-72
2022/02/22 12:39:23;;;;;;;9.98;1.48;;;15.10;48.60;;;;;;6204725;28;20042;-73
2022/02/22 12:42:24;;;;;;;9.18;1.85;;;15.00;49.30;;;;;;6195339;28;20046;-73
2022/02/22 12:45:26;;;;;;;4.63;1.20;;;15.50;49.20;;;;;;6210929;28;20490;-73
2022/02/22 12:48:28;;;;;;;5.07;1.15;;;15.90;48.60;;;;;;6193184;28;20121;-73
2022/02/22 12:51:30;;;;;;;7.40;1.65;;;16.10;48.30;;;;;;6196110;28;20469;-73
2022/02/22 12:54:33;;;;;;;9.82;1.70;;;16.00;48.00;;;;;;6193411;28;20038;-73
2022/02/22 12:57:33;;;;;;;14.23;1.80;;;16.00;47.90;;;;;;6197888;28;20030;-72
2022/02/22 13:00:35;;;;;;;2.78;1.15;;;16.00;47.60;;;;;;6195095;28;20061;-73
2022/02/22 13:03:37;;;;;;;6.63;1.23;;;16.00;47.60;;;;;;6178745;28;20034;-73
2022/02/22 13:06:49;;;;;;;7.63;1.20;;;15.90;47.50;;;;;;6195561;28;20038;-74
2022/02/22 13:09:50;;;;;;;8.55;1.50;;;15.80;47.40;;;;;;6194217;28;20034;-73
2022/02/22 13:13:00;;;;;;;11.18;1.33;;;15.80;47.70;;;;;;6191185;28;20092;-73
2022/02/22 13:16:13;;;;;;;3.95;1.20;;;15.70;47.30;;;;;;6193878;28;20424;-73
2022/02/22 13:19:14;;;;;;;7.65;1.33;;;15.60;47.50;;;;;;6208820;28;20056;-74
2022/02/22 13:22:25;;;;;;;2.67;0.80;;;15.60;47.40;;;;;;6193204;28;20058;-73
2022/02/22 13:25:26;;;;;;;9.93;1.25;;;15.60;47.30;;;;;;6192847;28;20037;-73
2022/02/22 13:28:35;;;;;;;7.32;1.42;;;15.60;47.40;;;;;;6193811;28;20042;-73
2022/02/22 13:31:37;;;;;;;4.50;0.82;;;15.60;46.90;;;;;;6194010;28;20172;-72
2022/02/22 13:34:46;;;;;;;4.80;2.03;;;15.60;46.90;;;;;;6195572;28;20061;-73
2022/02/22 13:37:47;;;;;;;10.57;1.30;;;15.60;46.50;;;;;;6175996;28;20043;-73
2022/02/22 13:40:48;;;;;;;5.15;1.23;;;15.50;46.70;;;;;;6193769;28;20046;-73
2022/02/22 13:43:49;;;;;;;9.02;1.38;;;15.50;46.80;;;;;;6194055;28;20057;-72
2022/02/22 13:46:54;;;;;;;10.18;1.63;;;15.60;46.90;;;;;;6195604;28;20129;-73
2022/02/22 13:49:55;;;;;;;9.70;1.35;;;15.60;46.60;;;;;;6209041;28;20129;-73
2022/02/22 13:53:08;;;;;;;10.60;1.20;;;15.60;46.70;;;;;;6194385;28;20045;-73
2022/02/22 13:56:09;;;;;;;7.43;1.60;;;15.60;46.20;;;;;;6189640;28;20077;-73
2022/02/22 13:59:11;;;;;;;4.85;1.20;;;15.70;46.30;;;;;;6192839;28;20114;-72
2022/02/22 14:02:24;;;;;;;10.07;1.38;;;15.70;46.40;;;;;;6193920;28;20202;-73
2022/02/22 14:05:25;;;;;;;7.28;1.33;;;15.70;46.40;;;;;;6195713;28;20377;-73
2022/02/22 14:08:26;;;;;;;6.88;1.33;;;15.70;46.50;;;;;;6193731;28;20035;-73
2022/02/22 14:11:36;;;;;;;6.43;1.10;;;15.80;46.70;;;;;;6187226;28;20043;-74
2022/02/22 14:14:37;;;;;;;9.55;1.15;;;15.80;46.50;;;;;;6207467;28;20049;-73
2022/02/22 14:17:37;;;;;;;9.63;1.15;;;15.80;46.80;;;;;;6193011;28;20482;-72
2022/02/22 14:20:40;;;;;;;9.85;1.10;;;15.80;46.90;;;;;;6200598;28;20052;-73
2022/02/22 14:23:41;;;;;;;2.75;1.17;;;15.90;46.70;;;;;;6193367;28;20447;-72
2022/02/22 14:26:43;;;;;;;7.85;1.20;;;15.90;46.30;;;;;;6194641;28;20065;-73
2022/02/22 14:29:48;;;;;;;6.38;1.17;;;15.80;46.20;;;;;;6195673;28;20034;-73
2022/02/22 14:32:50;;;;;;;8.68;1.30;;;15.90;45.80;;;;;;6209418;28;20054;-73
2022/02/22 14:35:51;;;;;;;7.93;1.23;;;15.90;45.60;;;;;;6193983;28;20336;-74
2022/02/22 14:38:51;;;;;;;11.27;1.80;;;15.90;45.30;;;;;;6209841;28;20050;-74
2022/02/22 14:41:52;;;;;;;6.72;1.73;;;15.90;45.30;;;;;;6195293;28;20045;-73
2022/02/22 14:44:53;;;;;;;8.00;1.02;;;15.80;45.20;;;;;;6214313;28;20061;-74
2022/02/22 14:47:54;;;;;;;14.10;1.73;;;15.80;45.40;;;;;;6199277;28;20048;-73
2022/02/22 14:50:56;;;;;;;5.00;1.05;;;15.80;45.70;;;;;;6199336;28;20096;-73
2022/02/22 14:53:57;;;;;;;5.63;1.77;;;15.80;45.70;;;;;;6198208;28;20049;-73
2022/02/22 14:56:58;;;;;;;7.82;1.35;;;15.80;45.80;;;;;;6199618;28;20038;-73
2022/02/22 14:59:59;;;;;;;8.13;1.70;;;15.70;45.60;;;;;;6198842;28;20466;-73
2022/02/22 15:03:01;;;;;;;12.43;2.58;;;15.70;45.70;;;;;;6209429;28;20042;-73
2022/02/22 15:06:04;;;;;;;8.48;1.20;;;15.70;45.50;;;;;;6198596;28;20038;-73
2022/02/22 15:09:05;;;;;;;10.07;1.15;;;15.70;44.90;;;;;;6197080;28;20042;-73
2022/02/22 15:12:06;;;;;;;8.20;1.42;;;15.60;44.90;;;;;;6188265;28;20395;-74
2022/02/22 15:15:08;;;;;;;5.35;1.17;;;15.50;44.90;;;;;;6199519;28;20125;-73
2022/02/22 15:18:10;;;;;;;3.50;1.20;;;15.50;44.40;;;;;;6193192;28;20031;-73
2022/02/22 15:21:12;;;;;;;6.65;1.38;;;15.40;44.70;;;;;;6206764;28;20038;-73
2022/02/22 15:24:13;;;;;;;11.45;1.42;;;15.40;44.90;;;;;;6206130;28;20035;-73
2022/02/22 15:27:13;;;;;;;9.10;1.70;;;15.30;45.10;;;;;;6205863;28;20038;-72
2022/02/22 15:30:15;;;;;;;5.88;0.93;;;15.30;45.00;;;;;;6190322;28;20030;-73
2022/02/22 15:33:18;;;;;;;6.63;1.45;;;15.30;44.90;;;;;;6191155;28;20037;-73
2022/02/22 15:36:19;;;;;;;10.35;1.20;;;15.20;45.00;;;;;;6192275;28;20076;-72
2022/02/22 15:39:20;;;;;;;5.90;1.25;;;15.20;45.10;;;;;;6191722;28;20050;-72
2022/02/22 15:42:21;;;;;;;8.50;1.20;;;15.20;45.40;;;;;;6191194;28;20038;-72
2022/02/22 15:45:22;;;;;;;7.97;1.27;;;15.10;45.50;;;;;;6174330;28;20050;-73
2022/02/22 15:48:24;;;;;;;12.63;1.50;;;15.10;45.60;;;;;;6206077;28;20115;-72
2022/02/22 15:51:25;;;;;;;6.97;1.27;;;15.10;45.80;;;;;;6187132;28;20046;-72